sensor_id;sensor_type;location;lat;lon;timestamp;pressure;altitude;pressure_sealevel;temperature;humidity
28004;BME280;15330;51.234;6.754;2022-08-03T00:00:54;101109.03;;;23.54;55.61
28004;BME280;15330;51.234;6.754;2022-08-03T00:03:20;101111.50;;;23.43;55.28
28004;BME280;15330;51.234;6.754;2022-08-03T00:05:45;101113.53;;;23.36;55.77
28004;BME280;15330;51.234;6.754;2022-08-03T00:08:11;101114.63;;;23.24;56.29
28004;BME280;15330;51.234;6.754;2022-08-03T00:10:36;101119.50;;;23.22;56.06
28004;BME280;15330;51.234;6.754;2022-08-03T00:13:03;101115.72;;;23.11;56.31
28004;BME280;15330;51.234;6.754;2022-08-03T00:15:28;101108.44;;;23.17;56.31
28004;BME280;15330;51.234;6.754;2022-08-03T00:17:53;101107.38;;;23.18;56.11
28004;BME280;15330;51.234;6.754;2022-08-03T00:20:20;101114.75;;;23.17;56.57
28004;BME280;15330;51.234;6.754;2022-08-03T00:22:46;101106.56;;;23.17;55.98
28004;BME280;15330;51.234;6.754;2022-08-03T00:25:12;101094.81;;;23.05;56.49
28004;BME280;15330;51.234;6.754;2022-08-03T00:27:37;101102.06;;;22.88;57.05
28004;BME280;15330;51.234;6.754;2022-08-03T00:30:03;101102.28;;;22.98;56.70
28004;BME280;15330;51.234;6.754;2022-08-03T00:32:29;101105.16;;;23.03;56.59
28004;BME280;15330;51.234;6.754;2022-08-03T00:34:54;101097.66;;;23.10;56.69
28004;BME280;15330;51.234;6.754;2022-08-03T00:37:19;101096.97;;;23.03;56.62
28004;BME280;15330;51.234;6.754;2022-08-03T00:39:45;101097.22;;;23.01;57.02
28004;BME280;15330;51.234;6.754;2022-08-03T00:42:12;101094.34;;;22.85;57.24
28004;BME280;15330;51.234;6.754;2022-08-03T00:44:39;101084.75;;;22.82;57.19
28004;BME280;15330;51.234;6.754;2022-08-03T00:47:05;101096.13;;;22.91;57.20
28004;BME280;15330;51.234;6.754;2022-08-03T00:49:31;101087.50;;;22.82;57.47
28004;BME280;15330;51.234;6.754;2022-08-03T00:51:56;101099.31;;;22.76;57.91
28004;BME280;15330;51.234;6.754;2022-08-03T00:54:22;101094.69;;;22.77;58.04
28004;BME280;15330;51.234;6.754;2022-08-03T00:56:48;101094.09;;;22.63;58.55
28004;BME280;15330;51.234;6.754;2022-08-03T00:59:15;101083.88;;;22.70;58.35
28004;BME280;15330;51.234;6.754;2022-08-03T01:01:40;101093.69;;;22.48;58.93
28004;BME280;15330;51.234;6.754;2022-08-03T01:04:06;101101.66;;;22.49;58.97
28004;BME280;15330;51.234;6.754;2022-08-03T01:06:35;101078.53;;;22.52;58.81
28004;BME280;15330;51.234;6.754;2022-08-03T01:09:20;101090.34;;;22.34;59.58
28004;BME280;15330;51.234;6.754;2022-08-03T01:11:53;101091.81;;;22.48;59.33
28004;BME280;15330;51.234;6.754;2022-08-03T01:14:45;101086.13;;;22.50;59.34
28004;BME280;15330;51.234;6.754;2022-08-03T01:17:24;101092.66;;;22.60;59.22
28004;BME280;15330;51.234;6.754;2022-08-03T01:19:59;101086.72;;;22.52;59.25
28004;BME280;15330;51.234;6.754;2022-08-03T01:27:53;101093.88;;;22.23;60.13
28004;BME280;15330;51.234;6.754;2022-08-03T01:30:28;101090.59;;;22.44;59.47
28004;BME280;15330;51.234;6.754;2022-08-03T01:33:02;101082.09;;;22.52;59.18
28004;BME280;15330;51.234;6.754;2022-08-03T01:35:34;101087.78;;;22.51;59.33
28004;BME280;15330;51.234;6.754;2022-08-03T01:38:04;101081.59;;;22.44;59.18
28004;BME280;15330;51.234;6.754;2022-08-03T01:40:33;101088.34;;;22.29;60.19
28004;BME280;15330;51.234;6.754;2022-08-03T01:43:01;101083.59;;;22.37;59.78
28004;BME280;15330;51.234;6.754;2022-08-03T01:45:29;101087.53;;;22.41;59.79
28004;BME280;15330;51.234;6.754;2022-08-03T01:47:55;101085.00;;;22.27;60.25
28004;BME280;15330;51.234;6.754;2022-08-03T01:50:26;101086.06;;;22.26;60.16
28004;BME280;15330;51.234;6.754;2022-08-03T01:52:52;101091.94;;;22.12;60.94
28004;BME280;15330;51.234;6.754;2022-08-03T01:55:19;101078.97;;;22.25;60.33
28004;BME280;15330;51.234;6.754;2022-08-03T01:57:47;101075.28;;;22.20;60.42
28004;BME280;15330;51.234;6.754;2022-08-03T02:00:13;101077.75;;;22.10;60.82
28004;BME280;15330;51.234;6.754;2022-08-03T02:02:41;101074.41;;;22.08;60.98
28004;BME280;15330;51.234;6.754;2022-08-03T02:05:09;101085.78;;;22.05;61.24
28004;BME280;15330;51.234;6.754;2022-08-03T02:07:36;101075.59;;;22.00;61.52
28004;BME280;15330;51.234;6.754;2022-08-03T02:10:05;101072.88;;;22.12;61.04
28004;BME280;15330;51.234;6.754;2022-08-03T02:12:31;101057.84;;;22.09;60.68
28004;BME280;15330;51.234;6.754;2022-08-03T02:14:58;101082.00;;;22.06;61.27
28004;BME280;15330;51.234;6.754;2022-08-03T02:17:25;101072.75;;;22.07;61.25
28004;BME280;15330;51.234;6.754;2022-08-03T02:19:52;101077.03;;;22.14;60.93
28004;BME280;15330;51.234;6.754;2022-08-03T02:22:18;101083.19;;;22.10;61.30
28004;BME280;15330;51.234;6.754;2022-08-03T02:24:44;101082.47;;;21.84;61.92
28004;BME280;15330;51.234;6.754;2022-08-03T02:27:17;101091.16;;;21.93;61.91
28004;BME280;15330;51.234;6.754;2022-08-03T02:29:45;101081.06;;;21.93;61.64
28004;BME280;15330;51.234;6.754;2022-08-03T02:32:16;101086.38;;;22.07;61.38
28004;BME280;15330;51.234;6.754;2022-08-03T02:34:46;101067.63;;;21.80;61.87
28004;BME280;15330;51.234;6.754;2022-08-03T02:37:13;101087.53;;;21.99;61.60
28004;BME280;15330;51.234;6.754;2022-08-03T02:39:41;101077.75;;;22.10;61.59
28004;BME280;15330;51.234;6.754;2022-08-03T02:42:09;101079.78;;;21.96;61.82
28004;BME280;15330;51.234;6.754;2022-08-03T02:44:36;101075.59;;;21.82;62.58
28004;BME280;15330;51.234;6.754;2022-08-03T02:47:05;101071.91;;;21.76;62.71
28004;BME280;15330;51.234;6.754;2022-08-03T02:49:33;101071.28;;;21.44;63.47
28004;BME280;15330;51.234;6.754;2022-08-03T02:52:00;101064.31;;;21.48;63.09
28004;BME280;15330;51.234;6.754;2022-08-03T02:54:27;101072.13;;;21.75;62.42
28004;BME280;15330;51.234;6.754;2022-08-03T02:56:54;101060.72;;;21.66;62.73
28004;BME280;15330;51.234;6.754;2022-08-03T02:59:22;101067.47;;;21.93;61.97
28004;BME280;15330;51.234;6.754;2022-08-03T03:01:48;101071.28;;;21.74;62.17
28004;BME280;15330;51.234;6.754;2022-08-03T03:04:14;101072.78;;;21.58;62.64
28004;BME280;15330;51.234;6.754;2022-08-03T03:06:40;101068.34;;;21.28;63.75
28004;BME280;15330;51.234;6.754;2022-08-03T03:09:06;101075.13;;;21.37;63.48
28004;BME280;15330;51.234;6.754;2022-08-03T03:11:35;101079.88;;;21.41;63.25
28004;BME280;15330;51.234;6.754;2022-08-03T03:14:02;101075.72;;;21.57;62.94
28004;BME280;15330;51.234;6.754;2022-08-03T03:16:28;101077.38;;;21.40;63.52
28004;BME280;15330;51.234;6.754;2022-08-03T03:18:55;101074.28;;;21.54;63.42
28004;BME280;15330;51.234;6.754;2022-08-03T03:21:22;101074.88;;;21.56;63.09
28004;BME280;15330;51.234;6.754;2022-08-03T03:23:48;101078.75;;;21.49;63.48
28004;BME280;15330;51.234;6.754;2022-08-03T03:26:14;101077.94;;;21.48;63.62
28004;BME280;15330;51.234;6.754;2022-08-03T03:28:40;101083.59;;;21.29;64.09
28004;BME280;15330;51.234;6.754;2022-08-03T03:31:06;101079.44;;;21.44;63.55
28004;BME280;15330;51.234;6.754;2022-08-03T03:33:33;101079.97;;;21.35;64.07
28004;BME280;15330;51.234;6.754;2022-08-03T03:35:59;101087.00;;;21.24;64.56
28004;BME280;15330;51.234;6.754;2022-08-03T03:38:25;101082.81;;;21.03;65.53
28004;BME280;15330;51.234;6.754;2022-08-03T03:40:51;101070.25;;;21.02;65.08
28004;BME280;15330;51.234;6.754;2022-08-03T03:43:16;101077.28;;;21.10;65.15
28004;BME280;15330;51.234;6.754;2022-08-03T03:45:46;101080.97;;;20.97;65.85
28004;BME280;15330;51.234;6.754;2022-08-03T03:48:12;101078.97;;;21.29;64.70
28004;BME280;15330;51.234;6.754;2022-08-03T03:50:37;101066.06;;;21.24;64.88
28004;BME280;15330;51.234;6.754;2022-08-03T03:53:08;101079.53;;;21.38;64.30
28004;BME280;15330;51.234;6.754;2022-08-03T03:55:35;101076.19;;;21.17;65.02
28004;BME280;15330;51.234;6.754;2022-08-03T03:58:01;101081.84;;;21.16;65.39
28004;BME280;15330;51.234;6.754;2022-08-03T04:00:28;101086.16;;;21.23;65.11
28004;BME280;15330;51.234;6.754;2022-08-03T04:02:54;101086.66;;;21.14;65.50
28004;BME280;15330;51.234;6.754;2022-08-03T04:05:19;101087.63;;;21.01;65.69
28004;BME280;15330;51.234;6.754;2022-08-03T04:08:08;101088.72;;;21.18;65.35
28004;BME280;15330;51.234;6.754;2022-08-03T04:13:33;101082.25;;;20.76;66.40
28004;BME280;15330;51.234;6.754;2022-08-03T04:16:00;101076.97;;;21.00;65.88
28004;BME280;15330;51.234;6.754;2022-08-03T04:18:28;101062.31;;;21.01;65.35
28004;BME280;15330;51.234;6.754;2022-08-03T04:20:55;101079.16;;;20.91;65.90
28004;BME280;15330;51.234;6.754;2022-08-03T04:23:24;101079.00;;;20.86;66.15
28004;BME280;15330;51.234;6.754;2022-08-03T04:25:52;101088.53;;;20.95;65.79
28004;BME280;15330;51.234;6.754;2022-08-03T04:28:19;101089.31;;;21.02;65.47
28004;BME280;15330;51.234;6.754;2022-08-03T04:30:47;101090.13;;;21.03;65.56
28004;BME280;15330;51.234;6.754;2022-08-03T04:33:15;101087.72;;;20.95;65.86
28004;BME280;15330;51.234;6.754;2022-08-03T04:35:42;101093.38;;;21.11;65.23
28004;BME280;15330;51.234;6.754;2022-08-03T04:38:12;101088.84;;;21.05;65.57
28004;BME280;15330;51.234;6.754;2022-08-03T04:40:40;101086.97;;;21.06;65.48
28004;BME280;15330;51.234;6.754;2022-08-03T04:43:09;101092.00;;;21.27;64.75
28004;BME280;15330;51.234;6.754;2022-08-03T04:45:35;101083.31;;;21.37;64.21
28004;BME280;15330;51.234;6.754;2022-08-03T04:48:01;101077.44;;;21.15;64.85
28004;BME280;15330;51.234;6.754;2022-08-03T04:50:27;101083.59;;;21.29;64.52
28004;BME280;15330;51.234;6.754;2022-08-03T04:52:54;101085.13;;;21.24;64.52
28004;BME280;15330;51.234;6.754;2022-08-03T04:55:29;101098.50;;;21.26;64.73
28004;BME280;15330;51.234;6.754;2022-08-03T04:57:55;101089.22;;;21.09;65.00
28004;BME280;15330;51.234;6.754;2022-08-03T05:00:21;101094.22;;;21.12;65.08
28004;BME280;15330;51.234;6.754;2022-08-03T05:02:47;101094.56;;;21.40;64.15
28004;BME280;15330;51.234;6.754;2022-08-03T05:05:12;101101.56;;;21.66;63.44
28004;BME280;15330;51.234;6.754;2022-08-03T05:07:40;101101.88;;;21.40;64.28
28004;BME280;15330;51.234;6.754;2022-08-03T05:10:07;101105.19;;;21.60;63.64
28004;BME280;15330;51.234;6.754;2022-08-03T05:12:33;101103.53;;;21.77;62.87
28004;BME280;15330;51.234;6.754;2022-08-03T05:14:59;101102.28;;;21.43;64.05
28004;BME280;15330;51.234;6.754;2022-08-03T05:17:24;101111.31;;;21.19;64.93
28004;BME280;15330;51.234;6.754;2022-08-03T05:19:49;101102.78;;;21.52;63.89
28004;BME280;15330;51.234;6.754;2022-08-03T05:22:15;101107.63;;;21.50;63.80
28004;BME280;15330;51.234;6.754;2022-08-03T05:24:40;101108.63;;;21.55;63.36
28004;BME280;15330;51.234;6.754;2022-08-03T05:27:05;101101.44;;;21.43;63.96
28004;BME280;15330;51.234;6.754;2022-08-03T05:29:31;101114.44;;;21.59;63.67
28004;BME280;15330;51.234;6.754;2022-08-03T05:31:56;101108.69;;;21.67;63.26
28004;BME280;15330;51.234;6.754;2022-08-03T05:34:22;101094.78;;;21.57;63.60
28004;BME280;15330;51.234;6.754;2022-08-03T05:36:47;101117.63;;;21.56;63.79
28004;BME280;15330;51.234;6.754;2022-08-03T05:39:12;101108.47;;;21.69;63.40
28004;BME280;15330;51.234;6.754;2022-08-03T05:41:38;101112.78;;;21.58;64.00
28004;BME280;15330;51.234;6.754;2022-08-03T05:44:04;101103.03;;;21.80;63.14
28004;BME280;15330;51.234;6.754;2022-08-03T05:46:30;101109.97;;;21.94;62.75
28004;BME280;15330;51.234;6.754;2022-08-03T05:48:55;101107.72;;;21.91;62.71
28004;BME280;15330;51.234;6.754;2022-08-03T05:51:21;101111.38;;;21.85;63.10
28004;BME280;15330;51.234;6.754;2022-08-03T05:53:46;101104.47;;;22.01;62.32
28004;BME280;15330;51.234;6.754;2022-08-03T05:56:12;101102.84;;;22.12;61.74
28004;BME280;15330;51.234;6.754;2022-08-03T05:58:37;101110.41;;;22.40;61.59
28004;BME280;15330;51.234;6.754;2022-08-03T06:01:03;101108.38;;;22.35;61.13
28004;BME280;15330;51.234;6.754;2022-08-03T06:03:28;101111.84;;;22.54;61.04
28004;BME280;15330;51.234;6.754;2022-08-03T06:05:53;101105.38;;;22.90;60.66
28004;BME280;15330;51.234;6.754;2022-08-03T06:08:22;101101.38;;;22.92;59.51
28004;BME280;15330;51.234;6.754;2022-08-03T06:10:49;101109.19;;;22.89;60.03
28004;BME280;15330;51.234;6.754;2022-08-03T06:13:14;101109.06;;;22.95;60.00
28004;BME280;15330;51.234;6.754;2022-08-03T06:15:40;101110.94;;;22.95;59.37
28004;BME280;15330;51.234;6.754;2022-08-03T06:18:06;101114.13;;;23.27;58.97
28004;BME280;15330;51.234;6.754;2022-08-03T06:20:32;101112.34;;;23.32;58.36
28004;BME280;15330;51.234;6.754;2022-08-03T06:22:57;101125.66;;;23.17;58.80
28004;BME280;15330;51.234;6.754;2022-08-03T06:25:23;101116.41;;;23.18;59.26
28004;BME280;15330;51.234;6.754;2022-08-03T06:27:50;101107.38;;;23.29;58.12
28004;BME280;15330;51.234;6.754;2022-08-03T06:30:16;101118.72;;;23.61;57.63
28004;BME280;15330;51.234;6.754;2022-08-03T06:32:41;101115.53;;;23.93;56.97
28004;BME280;15330;51.234;6.754;2022-08-03T06:35:08;101117.22;;;24.10;56.02
28004;BME280;15330;51.234;6.754;2022-08-03T06:40:17;101108.75;;;24.24;56.22
28004;BME280;15330;51.234;6.754;2022-08-03T06:42:43;101111.00;;;24.27;55.16
28004;BME280;15330;51.234;6.754;2022-08-03T06:45:09;101117.03;;;24.00;55.78
28004;BME280;15330;51.234;6.754;2022-08-03T06:47:36;101123.56;;;24.39;55.18
28004;BME280;15330;51.234;6.754;2022-08-03T06:50:03;101115.25;;;24.51;54.55
28004;BME280;15330;51.234;6.754;2022-08-03T06:52:28;101121.75;;;24.95;54.37
28004;BME280;15330;51.234;6.754;2022-08-03T06:54:54;101121.81;;;25.39;53.80
28004;BME280;15330;51.234;6.754;2022-08-03T06:57:20;101115.56;;;24.71;54.16
28004;BME280;15330;51.234;6.754;2022-08-03T06:59:46;101109.53;;;25.41;53.30
28004;BME280;15330;51.234;6.754;2022-08-03T07:02:11;101120.38;;;25.14;52.97
28004;BME280;15330;51.234;6.754;2022-08-03T07:04:37;101112.53;;;25.40;52.39
28004;BME280;15330;51.234;6.754;2022-08-03T07:07:02;101118.91;;;25.07;52.69
28004;BME280;15330;51.234;6.754;2022-08-03T07:09:27;101128.25;;;25.49;51.88
28004;BME280;15330;51.234;6.754;2022-08-03T07:11:53;101127.56;;;24.99;52.77
28004;BME280;15330;51.234;6.754;2022-08-03T07:14:20;101127.06;;;25.84;51.48
28004;BME280;15330;51.234;6.754;2022-08-03T07:16:45;101129.75;;;25.79;51.10
28004;BME280;15330;51.234;6.754;2022-08-03T07:19:10;101136.50;;;25.71;51.23
28004;BME280;15330;51.234;6.754;2022-08-03T07:21:36;101133.16;;;26.72;50.63
28004;BME280;15330;51.234;6.754;2022-08-03T07:24:02;101132.66;;;27.12;47.31
28004;BME280;15330;51.234;6.754;2022-08-03T07:26:27;101143.53;;;27.38;49.43
28004;BME280;15330;51.234;6.754;2022-08-03T07:28:53;101132.09;;;27.57;46.61
28004;BME280;15330;51.234;6.754;2022-08-03T07:31:18;101136.47;;;28.45;47.15
28004;BME280;15330;51.234;6.754;2022-08-03T07:33:43;101130.41;;;27.51;47.13
28004;BME280;15330;51.234;6.754;2022-08-03T07:36:09;101141.25;;;27.83;46.46
28004;BME280;15330;51.234;6.754;2022-08-03T07:38:34;101145.69;;;27.31;48.56
28004;BME280;15330;51.234;6.754;2022-08-03T07:41:01;101130.34;;;28.03;45.81
28004;BME280;15330;51.234;6.754;2022-08-03T07:43:26;101129.28;;;27.47;46.64
28004;BME280;15330;51.234;6.754;2022-08-03T07:45:52;101123.19;;;28.02;45.27
28004;BME280;15330;51.234;6.754;2022-08-03T07:48:17;101132.22;;;27.82;46.41
28004;BME280;15330;51.234;6.754;2022-08-03T07:50:43;101127.53;;;27.77;46.72
28004;BME280;15330;51.234;6.754;2022-08-03T07:53:08;101131.16;;;28.03;46.22
28004;BME280;15330;51.234;6.754;2022-08-03T07:55:33;101134.84;;;27.57;46.42
28004;BME280;15330;51.234;6.754;2022-08-03T07:58:02;101121.91;;;28.45;44.46
28004;BME280;15330;51.234;6.754;2022-08-03T08:00:29;101127.97;;;28.67;44.88
28004;BME280;15330;51.234;6.754;2022-08-03T08:02:54;101118.03;;;28.26;43.55
28004;BME280;15330;51.234;6.754;2022-08-03T08:05:19;101124.94;;;28.64;43.53
28004;BME280;15330;51.234;6.754;2022-08-03T08:07:45;101124.13;;;28.43;43.55
28004;BME280;15330;51.234;6.754;2022-08-03T08:10:10;101125.78;;;28.90;43.14
28004;BME280;15330;51.234;6.754;2022-08-03T08:12:37;101118.06;;;28.87;44.15
28004;BME280;15330;51.234;6.754;2022-08-03T08:15:03;101112.25;;;28.68;44.03
28004;BME280;15330;51.234;6.754;2022-08-03T08:17:29;101116.72;;;29.74;42.41
28004;BME280;15330;51.234;6.754;2022-08-03T08:19:55;101119.97;;;28.66;42.93
28004;BME280;15330;51.234;6.754;2022-08-03T08:22:20;101121.50;;;29.53;43.68
28004;BME280;15330;51.234;6.754;2022-08-03T08:24:45;101117.47;;;29.89;40.44
28004;BME280;15330;51.234;6.754;2022-08-03T08:27:13;101125.44;;;29.27;44.30
28004;BME280;15330;51.234;6.754;2022-08-03T08:29:39;101119.53;;;29.69;41.14
28004;BME280;15330;51.234;6.754;2022-08-03T08:32:04;101124.09;;;28.38;42.83
28004;BME280;15330;51.234;6.754;2022-08-03T08:34:30;101116.50;;;29.60;41.77
28004;BME280;15330;51.234;6.754;2022-08-03T08:36:55;101109.09;;;29.55;42.50
28004;BME280;15330;51.234;6.754;2022-08-03T08:39:20;101120.63;;;30.90;40.19
28004;BME280;15330;51.234;6.754;2022-08-03T08:41:50;101112.97;;;30.82;39.29
28004;BME280;15330;51.234;6.754;2022-08-03T08:44:15;101118.34;;;30.29;39.74
28004;BME280;15330;51.234;6.754;2022-08-03T08:46:41;101117.09;;;29.57;41.20
28004;BME280;15330;51.234;6.754;2022-08-03T08:49:08;101117.97;;;30.02;40.98
28004;BME280;15330;51.234;6.754;2022-08-03T08:51:35;101114.31;;;30.55;38.76
28004;BME280;15330;51.234;6.754;2022-08-03T08:54:06;101104.84;;;28.89;41.51
28004;BME280;15330;51.234;6.754;2022-08-03T08:56:32;101117.78;;;29.83;39.97
28004;BME280;15330;51.234;6.754;2022-08-03T08:58:59;101122.19;;;29.84;40.52
28004;BME280;15330;51.234;6.754;2022-08-03T09:01:26;101116.25;;;31.84;37.27
28004;BME280;15330;51.234;6.754;2022-08-03T09:03:52;101107.88;;;30.26;39.03
28004;BME280;15330;51.234;6.754;2022-08-03T09:06:19;101112.00;;;30.28;39.26
28004;BME280;15330;51.234;6.754;2022-08-03T09:08:45;101111.84;;;30.49;39.04
28004;BME280;15330;51.234;6.754;2022-08-03T09:11:10;101115.34;;;30.25;38.96
28004;BME280;15330;51.234;6.754;2022-08-03T09:13:36;101112.09;;;30.86;38.90
28004;BME280;15330;51.234;6.754;2022-08-03T09:16:11;101096.88;;;30.60;38.60
28004;BME280;15330;51.234;6.754;2022-08-03T09:18:38;101105.03;;;31.04;37.83
28004;BME280;15330;51.234;6.754;2022-08-03T09:21:18;101108.91;;;29.96;39.25
28004;BME280;15330;51.234;6.754;2022-08-03T09:23:49;101116.16;;;29.77;40.25
28004;BME280;15330;51.234;6.754;2022-08-03T09:26:25;101112.38;;;31.61;37.73
28004;BME280;15330;51.234;6.754;2022-08-03T09:29:02;101116.78;;;30.86;37.07
28004;BME280;15330;51.234;6.754;2022-08-03T09:31:33;101107.88;;;30.65;37.67
28004;BME280;15330;51.234;6.754;2022-08-03T09:34:08;101107.97;;;31.36;36.55
28004;BME280;15330;51.234;6.754;2022-08-03T09:36:41;101117.84;;;30.22;36.97
28004;BME280;15330;51.234;6.754;2022-08-03T09:39:11;101117.09;;;31.13;36.92
28004;BME280;15330;51.234;6.754;2022-08-03T09:41:41;101125.00;;;31.72;34.10
28004;BME280;15330;51.234;6.754;2022-08-03T09:44:07;101111.69;;;31.27;35.33
28004;BME280;15330;51.234;6.754;2022-08-03T09:46:54;101104.69;;;32.71;34.60
28004;BME280;15330;51.234;6.754;2022-08-03T09:49:21;101105.97;;;32.27;33.85
28004;BME280;15330;51.234;6.754;2022-08-03T09:51:46;101101.09;;;32.52;34.11
28004;BME280;15330;51.234;6.754;2022-08-03T09:54:12;101103.09;;;31.76;35.10
28004;BME280;15330;51.234;6.754;2022-08-03T09:56:43;101104.50;;;32.81;32.92
28004;BME280;15330;51.234;6.754;2022-08-03T09:59:15;101107.31;;;32.62;34.14
28004;BME280;15330;51.234;6.754;2022-08-03T10:01:47;101099.72;;;33.14;32.39
28004;BME280;15330;51.234;6.754;2022-08-03T10:04:13;101106.81;;;33.75;32.76
28004;BME280;15330;51.234;6.754;2022-08-03T10:06:42;101102.28;;;32.32;34.08
28004;BME280;15330;51.234;6.754;2022-08-03T10:09:10;101109.81;;;31.89;34.42
28004;BME280;15330;51.234;6.754;2022-08-03T10:11:38;101095.75;;;31.66;34.40
28004;BME280;15330;51.234;6.754;2022-08-03T10:14:05;101099.78;;;31.50;34.62
28004;BME280;15330;51.234;6.754;2022-08-03T10:16:36;101092.84;;;31.95;34.30
28004;BME280;15330;51.234;6.754;2022-08-03T10:19:06;101092.56;;;31.54;34.92
28004;BME280;15330;51.234;6.754;2022-08-03T10:21:37;101083.94;;;32.36;33.62
28004;BME280;15330;51.234;6.754;2022-08-03T10:24:04;101086.19;;;31.96;33.64
28004;BME280;15330;51.234;6.754;2022-08-03T10:26:33;101099.88;;;30.92;35.27
28004;BME280;15330;51.234;6.754;2022-08-03T10:29:03;101092.56;;;30.78;35.09
28004;BME280;15330;51.234;6.754;2022-08-03T10:31:34;101091.78;;;31.01;34.97
28004;BME280;15330;51.234;6.754;2022-08-03T10:34:04;101082.25;;;31.60;34.15
28004;BME280;15330;51.234;6.754;2022-08-03T10:36:32;101077.75;;;32.06;33.93
28004;BME280;15330;51.234;6.754;2022-08-03T10:38:59;101063.09;;;31.87;33.85
28004;BME280;15330;51.234;6.754;2022-08-03T10:41:31;101070.28;;;31.22;34.56
28004;BME280;15330;51.234;6.754;2022-08-03T10:46:28;101058.44;;;32.20;33.68
28004;BME280;15330;51.234;6.754;2022-08-03T10:48:53;101064.09;;;32.10;33.56
28004;BME280;15330;51.234;6.754;2022-08-03T10:51:20;101055.78;;;33.48;32.15
28004;BME280;15330;51.234;6.754;2022-08-03T10:53:46;101054.56;;;33.27;31.70
28004;BME280;15330;51.234;6.754;2022-08-03T10:59:15;101052.38;;;32.51;31.43
28004;BME280;15330;51.234;6.754;2022-08-03T11:01:51;101056.06;;;32.78;31.38
28004;BME280;15330;51.234;6.754;2022-08-03T11:04:19;101045.78;;;32.33;32.74
28004;BME280;15330;51.234;6.754;2022-08-03T11:06:46;101050.44;;;32.97;31.05
28004;BME280;15330;51.234;6.754;2022-08-03T11:11:43;101047.28;;;33.31;31.00
28004;BME280;15330;51.234;6.754;2022-08-03T11:16:44;101044.47;;;33.04;30.34
28004;BME280;15330;51.234;6.754;2022-08-03T11:19:13;101031.53;;;32.86;31.35
28004;BME280;15330;51.234;6.754;2022-08-03T11:27:28;101036.22;;;31.88;31.42
28004;BME280;15330;51.234;6.754;2022-08-03T11:30:07;101030.28;;;32.32;30.98
28004;BME280;15330;51.234;6.754;2022-08-03T11:35:09;101029.28;;;33.15;31.15
28004;BME280;15330;51.234;6.754;2022-08-03T11:37:35;101023.06;;;33.73;29.96
28004;BME280;15330;51.234;6.754;2022-08-03T11:40:01;101028.28;;;33.38;29.56
28004;BME280;15330;51.234;6.754;2022-08-03T11:44:57;101024.66;;;32.37;31.59
28004;BME280;15330;51.234;6.754;2022-08-03T11:47:24;101038.09;;;32.76;30.68
28004;BME280;15330;51.234;6.754;2022-08-03T11:49:55;101027.63;;;32.27;31.16
28004;BME280;15330;51.234;6.754;2022-08-03T11:52:24;101013.97;;;32.30;31.10
28004;BME280;15330;51.234;6.754;2022-08-03T11:54:51;101019.84;;;32.42;31.12
28004;BME280;15330;51.234;6.754;2022-08-03T11:57:33;101025.81;;;33.09;30.67
28004;BME280;15330;51.234;6.754;2022-08-03T11:59:58;101024.88;;;33.14;30.42
28004;BME280;15330;51.234;6.754;2022-08-03T12:02:24;101019.34;;;33.00;30.58
28004;BME280;15330;51.234;6.754;2022-08-03T12:04:53;101022.72;;;32.97;30.57
28004;BME280;15330;51.234;6.754;2022-08-03T12:07:22;101028.94;;;32.29;30.72
28004;BME280;15330;51.234;6.754;2022-08-03T12:10:24;101022.06;;;32.27;31.29
28004;BME280;15330;51.234;6.754;2022-08-03T12:12:57;101013.13;;;32.62;30.56
28004;BME280;15330;51.234;6.754;2022-08-03T12:15:29;101007.44;;;32.40;31.14
28004;BME280;15330;51.234;6.754;2022-08-03T12:17:56;101015.00;;;33.49;29.92
28004;BME280;15330;51.234;6.754;2022-08-03T12:20:26;101015.09;;;33.94;29.43
28004;BME280;15330;51.234;6.754;2022-08-03T12:22:52;101011.63;;;33.88;29.58
28004;BME280;15330;51.234;6.754;2022-08-03T12:25:25;101008.41;;;33.95;28.79
28004;BME280;15330;51.234;6.754;2022-08-03T12:27:52;101004.72;;;34.08;28.88
28004;BME280;15330;51.234;6.754;2022-08-03T12:30:18;100998.19;;;34.04;29.76
28004;BME280;15330;51.234;6.754;2022-08-03T12:32:44;101001.38;;;33.75;29.66
28004;BME280;15330;51.234;6.754;2022-08-03T12:35:10;101000.47;;;34.02;28.67
28004;BME280;15330;51.234;6.754;2022-08-03T12:37:47;101006.81;;;34.24;28.96
28004;BME280;15330;51.234;6.754;2022-08-03T12:40:12;100997.03;;;33.19;29.58
28004;BME280;15330;51.234;6.754;2022-08-03T12:42:41;101001.97;;;33.22;29.58
28004;BME280;15330;51.234;6.754;2022-08-03T12:45:36;100998.38;;;33.22;29.40
28004;BME280;15330;51.234;6.754;2022-08-03T12:48:01;101002.38;;;33.15;30.28
28004;BME280;15330;51.234;6.754;2022-08-03T12:50:32;101001.16;;;33.22;29.45
28004;BME280;15330;51.234;6.754;2022-08-03T12:53:04;100994.28;;;33.19;29.67
28004;BME280;15330;51.234;6.754;2022-08-03T12:55:30;101003.31;;;33.38;30.13
28004;BME280;15330;51.234;6.754;2022-08-03T12:58:03;100996.91;;;34.10;29.40
28004;BME280;15330;51.234;6.754;2022-08-03T13:00:28;100984.41;;;33.76;29.07
28004;BME280;15330;51.234;6.754;2022-08-03T13:03:05;100993.25;;;33.15;29.29
28004;BME280;15330;51.234;6.754;2022-08-03T13:05:42;100992.50;;;33.50;28.48
28004;BME280;15330;51.234;6.754;2022-08-03T13:08:20;100993.72;;;33.44;29.02
28004;BME280;15330;51.234;6.754;2022-08-03T13:10:47;100991.63;;;33.28;28.96
28004;BME280;15330;51.234;6.754;2022-08-03T13:13:12;100985.69;;;33.93;29.10
28004;BME280;15330;51.234;6.754;2022-08-03T13:15:38;100985.50;;;33.89;28.74
28004;BME280;15330;51.234;6.754;2022-08-03T13:18:03;100988.88;;;33.64;28.33
28004;BME280;15330;51.234;6.754;2022-08-03T13:20:28;100990.06;;;33.71;28.46
28004;BME280;15330;51.234;6.754;2022-08-03T13:22:54;100986.44;;;33.48;27.78
28004;BME280;15330;51.234;6.754;2022-08-03T13:25:21;100975.41;;;33.57;27.81